sensor_id;sensor_type;location;lat;lon;timestamp;temperature;humidity
14993;DHT22;7592;51.088;13.732;2023-09-19T00:03:13;17.90;74.20
14993;DHT22;7592;51.088;13.732;2023-09-19T00:08:05;17.80;59.90
14993;DHT22;7592;51.088;13.732;2023-09-19T00:12:58;17.80;72.30
14993;DHT22;7592;51.088;13.732;2023-09-19T00:17:57;17.70;90.30
14993;DHT22;7592;51.088;13.732;2023-09-19T00:22:50;17.60;93.10
14993;DHT22;7592;51.088;13.732;2023-09-19T00:27:44;17.60;96.80
14993;DHT22;7592;51.088;13.732;2023-09-19T00:32:36;17.50;99.90
14993;DHT22;7592;51.088;13.732;2023-09-19T00:37:29;17.60;92.90
14993;DHT22;7592;51.088;13.732;2023-09-19T00:42:22;17.50;95.50
14993;DHT22;7592;51.088;13.732;2023-09-19T00:47:14;17.50;99.90
14993;DHT22;7592;51.088;13.732;2023-09-19T00:52:11;17.50;99.90
14993;DHT22;7592;51.088;13.732;2023-09-19T00:57:04;17.60;99.90
14993;DHT22;7592;51.088;13.732;2023-09-19T01:01:56;17.60;58.60
14993;DHT22;7592;51.088;13.732;2023-09-19T01:18:47;17.50;76.80
14993;DHT22;7592;51.088;13.732;2023-09-19T01:29:39;17.40;91.70
14993;DHT22;7592;51.088;13.732;2023-09-19T01:34:48;17.40;84.20
14993;DHT22;7592;51.088;13.732;2023-09-19T01:39:41;17.50;77.70
14993;DHT22;7592;51.088;13.732;2023-09-19T01:49:50;17.40;79.50
14993;DHT22;7592;51.088;13.732;2023-09-19T01:54:53;17.30;97.30
14993;DHT22;7592;51.088;13.732;2023-09-19T01:59:59;17.40;99.70
14993;DHT22;7592;51.088;13.732;2023-09-19T02:04:54;17.50;87.10
14993;DHT22;7592;51.088;13.732;2023-09-19T02:09:50;17.50;36.00
14993;DHT22;7592;51.088;13.732;2023-09-19T02:14:42;17.60;9.10
14993;DHT22;7592;51.088;13.732;2023-09-19T02:19:34;17.60;21.60
14993;DHT22;7592;51.088;13.732;2023-09-19T02:24:27;17.50;39.40
14993;DHT22;7592;51.088;13.732;2023-09-19T02:29:20;17.50;52.00
14993;DHT22;7592;51.088;13.732;2023-09-19T02:34:14;17.60;35.30
14993;DHT22;7592;51.088;13.732;2023-09-19T02:39:08;17.60;22.80
14993;DHT22;7592;51.088;13.732;2023-09-19T02:44:01;17.60;14.40
14993;DHT22;7592;51.088;13.732;2023-09-19T02:48:54;17.50;15.70
14993;DHT22;7592;51.088;13.732;2023-09-19T02:53:46;17.80;1.00
14993;DHT22;7592;51.088;13.732;2023-09-19T02:58:39;17.90;1.00
14993;DHT22;7592;51.088;13.732;2023-09-19T03:03:33;18.00;1.00
14993;DHT22;7592;51.088;13.732;2023-09-19T03:08:26;18.00;1.00
14993;DHT22;7592;51.088;13.732;2023-09-19T03:13:18;17.90;1.00
14993;DHT22;7592;51.088;13.732;2023-09-19T03:18:10;17.90;1.00
14993;DHT22;7592;51.088;13.732;2023-09-19T03:23:04;17.90;1.00
14993;DHT22;7592;51.088;13.732;2023-09-19T03:27:57;17.90;1.00
14993;DHT22;7592;51.088;13.732;2023-09-19T03:32:50;17.80;1.00
14993;DHT22;7592;51.088;13.732;2023-09-19T03:37:43;17.80;1.00
14993;DHT22;7592;51.088;13.732;2023-09-19T03:42:39;17.80;1.00
14993;DHT22;7592;51.088;13.732;2023-09-19T03:47:33;17.70;1.00
14993;DHT22;7592;51.088;13.732;2023-09-19T03:52:27;17.70;1.00
14993;DHT22;7592;51.088;13.732;2023-09-19T03:57:20;17.60;1.00
14993;DHT22;7592;51.088;13.732;2023-09-19T04:02:13;17.50;1.00
14993;DHT22;7592;51.088;13.732;2023-09-19T04:07:15;17.50;1.00
14993;DHT22;7592;51.088;13.732;2023-09-19T04:12:07;17.50;1.00
14993;DHT22;7592;51.088;13.732;2023-09-19T04:17:03;17.50;3.40
14993;DHT22;7592;51.088;13.732;2023-09-19T04:22:00;17.50;1.00
14993;DHT22;7592;51.088;13.732;2023-09-19T04:26:52;17.40;1.00
14993;DHT22;7592;51.088;13.732;2023-09-19T04:31:44;17.40;1.00
14993;DHT22;7592;51.088;13.732;2023-09-19T04:36:38;17.40;1.00
14993;DHT22;7592;51.088;13.732;2023-09-19T04:41:30;17.30;1.00
14993;DHT22;7592;51.088;13.732;2023-09-19T04:46:22;17.30;1.00
14993;DHT22;7592;51.088;13.732;2023-09-19T04:51:15;17.30;1.00
14993;DHT22;7592;51.088;13.732;2023-09-19T04:56:07;17.20;1.00
14993;DHT22;7592;51.088;13.732;2023-09-19T05:00:59;17.20;1.00
14993;DHT22;7592;51.088;13.732;2023-09-19T05:05:56;17.20;1.00
14993;DHT22;7592;51.088;13.732;2023-09-19T05:10:48;17.30;1.00
14993;DHT22;7592;51.088;13.732;2023-09-19T05:15:41;17.40;1.00
14993;DHT22;7592;51.088;13.732;2023-09-19T05:20:33;17.50;1.00
14993;DHT22;7592;51.088;13.732;2023-09-19T05:25:36;17.50;1.00
14993;DHT22;7592;51.088;13.732;2023-09-19T05:30:29;17.60;1.00
14993;DHT22;7592;51.088;13.732;2023-09-19T05:35:22;17.80;1.00
14993;DHT22;7592;51.088;13.732;2023-09-19T05:40:15;17.90;1.00
14993;DHT22;7592;51.088;13.732;2023-09-19T05:45:08;18.00;1.00
14993;DHT22;7592;51.088;13.732;2023-09-19T05:50:04;18.30;1.00
14993;DHT22;7592;51.088;13.732;2023-09-19T05:54:57;18.40;1.00
14993;DHT22;7592;51.088;13.732;2023-09-19T05:59:49;18.70;1.00
14993;DHT22;7592;51.088;13.732;2023-09-19T06:04:42;18.80;99.90
14993;DHT22;7592;51.088;13.732;2023-09-19T06:09:34;19.10;99.90
14993;DHT22;7592;51.088;13.732;2023-09-19T06:14:26;19.40;99.90
14993;DHT22;7592;51.088;13.732;2023-09-19T06:19:18;19.80;1.00
14993;DHT22;7592;51.088;13.732;2023-09-19T06:24:15;20.20;5.60
14993;DHT22;7592;51.088;13.732;2023-09-19T06:29:07;20.50;99.90
14993;DHT22;7592;51.088;13.732;2023-09-19T06:33:59;20.80;1.00
14993;DHT22;7592;51.088;13.732;2023-09-19T06:38:52;21.80;1.00
14993;DHT22;7592;51.088;13.732;2023-09-19T06:43:44;23.20;99.90
14993;DHT22;7592;51.088;13.732;2023-09-19T06:48:36;25.20;1.00
14993;DHT22;7592;51.088;13.732;2023-09-19T06:53:29;26.40;1.00
14993;DHT22;7592;51.088;13.732;2023-09-19T06:58:23;27.20;99.90
14993;DHT22;7592;51.088;13.732;2023-09-19T07:03:16;27.90;99.90
14993;DHT22;7592;51.088;13.732;2023-09-19T07:08:12;28.20;93.70
14993;DHT22;7592;51.088;13.732;2023-09-19T07:13:06;30.20;99.90
14993;DHT22;7592;51.088;13.732;2023-09-19T07:18:01;32.20;1.00
14993;DHT22;7592;51.088;13.732;2023-09-19T07:22:53;30.60;34.10
14993;DHT22;7592;51.088;13.732;2023-09-19T07:27:48;30.60;1.00
14993;DHT22;7592;51.088;13.732;2023-09-19T07:32:40;32.10;1.00
14993;DHT22;7592;51.088;13.732;2023-09-19T07:37:33;33.80;1.00
14993;DHT22;7592;51.088;13.732;2023-09-19T07:42:25;33.20;1.00
14993;DHT22;7592;51.088;13.732;2023-09-19T07:47:17;32.30;99.90
14993;DHT22;7592;51.088;13.732;2023-09-19T07:52:10;30.60;1.00
14993;DHT22;7592;51.088;13.732;2023-09-19T07:57:02;29.90;99.90
14993;DHT22;7592;51.088;13.732;2023-09-19T08:01:55;28.60;1.00
14993;DHT22;7592;51.088;13.732;2023-09-19T08:06:47;27.30;99.90
14993;DHT22;7592;51.088;13.732;2023-09-19T08:11:39;27.60;1.00
14993;DHT22;7592;51.088;13.732;2023-09-19T08:16:31;30.40;1.00
14993;DHT22;7592;51.088;13.732;2023-09-19T08:21:24;31.20;1.00
14993;DHT22;7592;51.088;13.732;2023-09-19T08:26:17;30.40;99.90
14993;DHT22;7592;51.088;13.732;2023-09-19T08:31:09;29.80;99.90
14993;DHT22;7592;51.088;13.732;2023-09-19T08:36:03;28.20;99.90
14993;DHT22;7592;51.088;13.732;2023-09-19T08:41:00;27.20;1.00
14993;DHT22;7592;51.088;13.732;2023-09-19T08:46:02;27.30;99.90
14993;DHT22;7592;51.088;13.732;2023-09-19T08:51:07;27.20;99.90
14993;DHT22;7592;51.088;13.732;2023-09-19T08:56:03;26.40;99.90
14993;DHT22;7592;51.088;13.732;2023-09-19T09:00:58;26.10;99.90
14993;DHT22;7592;51.088;13.732;2023-09-19T09:05:53;27.10;99.90
14993;DHT22;7592;51.088;13.732;2023-09-19T09:10:47;29.20;99.90
14993;DHT22;7592;51.088;13.732;2023-09-19T09:15:40;29.90;99.90
14993;DHT22;7592;51.088;13.732;2023-09-19T09:20:33;28.80;99.90
14993;DHT22;7592;51.088;13.732;2023-09-19T09:30:39;27.30;99.90
14993;DHT22;7592;51.088;13.732;2023-09-19T09:35:32;27.60;99.90
14993;DHT22;7592;51.088;13.732;2023-09-19T09:40:24;27.40;99.90
14993;DHT22;7592;51.088;13.732;2023-09-19T09:45:28;27.00;99.90
14993;DHT22;7592;51.088;13.732;2023-09-19T09:50:33;28.80;99.90
14993;DHT22;7592;51.088;13.732;2023-09-19T09:56:17;32.80;1.00
14993;DHT22;7592;51.088;13.732;2023-09-19T10:01:10;35.20;1.00
14993;DHT22;7592;51.088;13.732;2023-09-19T10:06:02;36.20;24.20
14993;DHT22;7592;51.088;13.732;2023-09-19T10:11:18;37.40;37.70
14993;DHT22;7592;51.088;13.732;2023-09-19T10:16:12;37.90;37.20
14993;DHT22;7592;51.088;13.732;2023-09-19T10:21:08;38.30;41.30
14993;DHT22;7592;51.088;13.732;2023-09-19T10:26:01;39.00;41.10
14993;DHT22;7592;51.088;13.732;2023-09-19T10:30:55;38.80;42.40
14993;DHT22;7592;51.088;13.732;2023-09-19T10:35:49;39.40;41.70
14993;DHT22;7592;51.088;13.732;2023-09-19T10:40:50;39.50;42.90
14993;DHT22;7592;51.088;13.732;2023-09-19T10:45:44;39.20;42.00
14993;DHT22;7592;51.088;13.732;2023-09-19T10:55:59;37.90;43.00
14993;DHT22;7592;51.088;13.732;2023-09-19T11:00:53;38.80;41.40
14993;DHT22;7592;51.088;13.732;2023-09-19T11:10:52;36.30;44.00
14993;DHT22;7592;51.088;13.732;2023-09-19T11:26:46;32.90;49.30
14993;DHT22;7592;51.088;13.732;2023-09-19T11:31:42;33.60;47.80
14993;DHT22;7592;51.088;13.732;2023-09-19T11:36:38;34.10;45.40
14993;DHT22;7592;51.088;13.732;2023-09-19T11:41:37;33.40;44.40
14993;DHT22;7592;51.088;13.732;2023-09-19T11:46:33;32.80;45.50
14993;DHT22;7592;51.088;13.732;2023-09-19T11:51:26;31.90;47.20
14993;DHT22;7592;51.088;13.732;2023-09-19T11:56:21;30.80;49.90
14993;DHT22;7592;51.088;13.732;2023-09-19T12:01:15;30.10;52.40
14993;DHT22;7592;51.088;13.732;2023-09-19T12:06:14;29.40;53.60
14993;DHT22;7592;51.088;13.732;2023-09-19T12:11:06;28.90;54.60
14993;DHT22;7592;51.088;13.732;2023-09-19T12:16:14;28.40;55.60
14993;DHT22;7592;51.088;13.732;2023-09-19T12:21:24;28.50;55.90
14993;DHT22;7592;51.088;13.732;2023-09-19T12:26:19;28.60;56.10
14993;DHT22;7592;51.088;13.732;2023-09-19T12:31:12;28.70;55.70
14993;DHT22;7592;51.088;13.732;2023-09-19T12:36:23;28.50;55.20
14993;DHT22;7592;51.088;13.732;2023-09-19T12:41:22;28.20;55.50
14993;DHT22;7592;51.088;13.732;2023-09-19T12:46:14;27.90;56.80
14993;DHT22;7592;51.088;13.732;2023-09-19T12:51:11;27.70;56.90
14993;DHT22;7592;51.088;13.732;2023-09-19T12:56:09;27.70;57.30
14993;DHT22;7592;51.088;13.732;2023-09-19T13:01:01;27.70;56.90
14993;DHT22;7592;51.088;13.732;2023-09-19T13:05:58;27.30;57.00
14993;DHT22;7592;51.088;13.732;2023-09-19T13:16:06;27.10;57.20
14993;DHT22;7592;51.088;13.732;2023-09-19T13:21:07;27.10;57.50
14993;DHT22;7592;51.088;13.732;2023-09-19T13:26:05;27.30;56.70
14993;DHT22;7592;51.088;13.732;2023-09-19T13:30:58;27.20;56.40
14993;DHT22;7592;51.088;13.732;2023-09-19T13:35:50;27.20;57.00
14993;DHT22;7592;51.088;13.732;2023-09-19T13:40:43;26.80;57.70
14993;DHT22;7592;51.088;13.732;2023-09-19T13:45:35;26.60;57.50
14993;DHT22;7592;51.088;13.732;2023-09-19T13:50:28;26.70;57.90
14993;DHT22;7592;51.088;13.732;2023-09-19T13:55:21;27.00;57.20
14993;DHT22;7592;51.088;13.732;2023-09-19T14:00:13;26.70;58.00
14993;DHT22;7592;51.088;13.732;2023-09-19T14:05:08;26.70;57.80
14993;DHT22;7592;51.088;13.732;2023-09-19T14:10:00;26.50;58.30
14993;DHT22;7592;51.088;13.732;2023-09-19T14:14:52;26.30;58.90
14993;DHT22;7592;51.088;13.732;2023-09-19T14:19:47;26.30;59.40
14993;DHT22;7592;51.088;13.732;2023-09-19T14:24:39;26.20;59.90
14993;DHT22;7592;51.088;13.732;2023-09-19T14:29:33;26.00;60.20
14993;DHT22;7592;51.088;13.732;2023-09-19T14:34:25;25.90;59.80
14993;DHT22;7592;51.088;13.732;2023-09-19T14:39:18;25.80;60.30
14993;DHT22;7592;51.088;13.732;2023-09-19T14:44:11;25.70;60.90
14993;DHT22;7592;51.088;13.732;2023-09-19T14:49:04;25.60;60.50
14993;DHT22;7592;51.088;13.732;2023-09-19T14:53:56;25.50;59.90
14993;DHT22;7592;51.088;13.732;2023-09-19T14:58:49;25.20;62.20
14993;DHT22;7592;51.088;13.732;2023-09-19T15:03:42;25.10;59.20
14993;DHT22;7592;51.088;13.732;2023-09-19T15:08:37;25.00;59.30
14993;DHT22;7592;51.088;13.732;2023-09-19T15:13:33;25.00;58.90
14993;DHT22;7592;51.088;13.732;2023-09-19T15:18:26;24.80;60.40
14993;DHT22;7592;51.088;13.732;2023-09-19T15:23:18;24.70;58.60
14993;DHT22;7592;51.088;13.732;2023-09-19T15:28:23;24.50;59.10
14993;DHT22;7592;51.088;13.732;2023-09-19T15:33:18;24.40;59.50
14993;DHT22;7592;51.088;13.732;2023-09-19T15:38:10;24.20;59.90
14993;DHT22;7592;51.088;13.732;2023-09-19T15:43:06;24.10;58.20
14993;DHT22;7592;51.088;13.732;2023-09-19T15:47:58;23.90;58.60
14993;DHT22;7592;51.088;13.732;2023-09-19T15:52:54;23.80;59.70
14993;DHT22;7592;51.088;13.732;2023-09-19T15:57:47;23.60;59.20
14993;DHT22;7592;51.088;13.732;2023-09-19T16:02:40;23.50;59.40
14993;DHT22;7592;51.088;13.732;2023-09-19T16:07:32;23.20;60.00
14993;DHT22;7592;51.088;13.732;2023-09-19T16:12:25;23.00;61.30
14993;DHT22;7592;51.088;13.732;2023-09-19T16:17:18;22.90;62.40
14993;DHT22;7592;51.088;13.732;2023-09-19T16:22:10;22.60;63.10
14993;DHT22;7592;51.088;13.732;2023-09-19T16:27:02;22.40;64.30
14993;DHT22;7592;51.088;13.732;2023-09-19T16:31:56;22.20;64.60
14993;DHT22;7592;51.088;13.732;2023-09-19T16:36:48;22.20;64.40
14993;DHT22;7592;51.088;13.732;2023-09-19T16:41:40;22.10;63.20
14993;DHT22;7592;51.088;13.732;2023-09-19T16:46:34;21.90;63.60
14993;DHT22;7592;51.088;13.732;2023-09-19T16:51:26;21.70;63.70
14993;DHT22;7592;51.088;13.732;2023-09-19T16:56:20;21.50;64.20
14993;DHT22;7592;51.088;13.732;2023-09-19T17:01:13;21.40;65.20
14993;DHT22;7592;51.088;13.732;2023-09-19T17:06:11;21.30;64.40
14993;DHT22;7592;51.088;13.732;2023-09-19T17:11:08;21.10;64.70
14993;DHT22;7592;51.088;13.732;2023-09-19T17:16:13;20.90;65.00
14993;DHT22;7592;51.088;13.732;2023-09-19T17:21:25;20.70;65.20
14993;DHT22;7592;51.088;13.732;2023-09-19T17:26:19;20.60;64.70
14993;DHT22;7592;51.088;13.732;2023-09-19T17:31:21;20.50;65.30
14993;DHT22;7592;51.088;13.732;2023-09-19T17:36:19;20.40;65.00
14993;DHT22;7592;51.088;13.732;2023-09-19T17:41:12;20.20;63.70
14993;DHT22;7592;51.088;13.732;2023-09-19T17:46:12;20.10;64.30
14993;DHT22;7592;51.088;13.732;2023-09-19T17:51:05;19.90;64.40
14993;DHT22;7592;51.088;13.732;2023-09-19T17:56:00;19.70;65.70
14993;DHT22;7592;51.088;13.732;2023-09-19T18:00:54;19.60;65.70
14993;DHT22;7592;51.088;13.732;2023-09-19T18:05:52;19.40;66.60
14993;DHT22;7592;51.088;13.732;2023-09-19T18:10:48;19.40;66.70
14993;DHT22;7592;51.088;13.732;2023-09-19T18:15:43;19.20;67.80
14993;DHT22;7592;51.088;13.732;2023-09-19T18:20:37;19.00;68.10
14993;DHT22;7592;51.088;13.732;2023-09-19T18:25:31;18.80;69.20
14993;DHT22;7592;51.088;13.732;2023-09-19T18:30:24;18.70;72.00
14993;DHT22;7592;51.088;13.732;2023-09-19T18:35:36;18.60;73.50
14993;DHT22;7592;51.088;13.732;2023-09-19T18:40:28;18.40;73.90
14993;DHT22;7592;51.088;13.732;2023-09-19T18:45:26;18.30;74.10
14993;DHT22;7592;51.088;13.732;2023-09-19T18:50:31;18.20;74.60
14993;DHT22;7592;51.088;13.732;2023-09-19T18:55:27;18.10;75.40
14993;DHT22;7592;51.088;13.732;2023-09-19T19:00:21;17.90;76.00
14993;DHT22;7592;51.088;13.732;2023-09-19T19:05:18;17.90;74.30
14993;DHT22;7592;51.088;13.732;2023-09-19T19:10:20;17.80;67.60
14993;DHT22;7592;51.088;13.732;2023-09-19T19:15:12;17.70;6.70
14993;DHT22;7592;51.088;13.732;2023-09-19T19:20:12;17.60;1.00
14993;DHT22;7592;51.088;13.732;2023-09-19T19:30:14;17.50;99.90
14993;DHT22;7592;51.088;13.732;2023-09-19T19:35:18;17.50;1.00
14993;DHT22;7592;51.088;13.732;2023-09-19T19:40:20;17.60;99.90
14993;DHT22;7592;51.088;13.732;2023-09-19T19:45:12;17.50;1.00
14993;DHT22;7592;51.088;13.732;2023-09-19T19:50:22;17.40;1.00
14993;DHT22;7592;51.088;13.732;2023-09-19T19:55:19;17.20;24.10
14993;DHT22;7592;51.088;13.732;2023-09-19T20:00:18;17.30;1.00
14993;DHT22;7592;51.088;13.732;2023-09-19T20:05:12;17.20;99.90
14993;DHT22;7592;51.088;13.732;2023-09-19T20:10:05;17.10;99.90
14993;DHT22;7592;51.088;13.732;2023-09-19T20:14:57;16.90;1.00
14993;DHT22;7592;51.088;13.732;2023-09-19T20:19:52;16.90;99.90
14993;DHT22;7592;51.088;13.732;2023-09-19T20:24:52;16.80;1.00
14993;DHT22;7592;51.088;13.732;2023-09-19T20:29:44;16.70;1.00
14993;DHT22;7592;51.088;13.732;2023-09-19T20:34:42;16.60;1.00
14993;DHT22;7592;51.088;13.732;2023-09-19T20:39:39;16.50;1.00
14993;DHT22;7592;51.088;13.732;2023-09-19T20:44:31;16.50;1.00
14993;DHT22;7592;51.088;13.732;2023-09-19T20:49:24;16.40;1.00
14993;DHT22;7592;51.088;13.732;2023-09-19T20:54:19;16.30;1.00
14993;DHT22;7592;51.088;13.732;2023-09-19T20:59:13;16.30;99.90
14993;DHT22;7592;51.088;13.732;2023-09-19T21:04:10;16.40;1.00
14993;DHT22;7592;51.088;13.732;2023-09-19T21:09:10;16.20;1.00
14993;DHT22;7592;51.088;13.732;2023-09-19T21:14:07;16.00;99.90
14993;DHT22;7592;51.088;13.732;2023-09-19T21:19:00;15.90;99.90
14993;DHT22;7592;51.088;13.732;2023-09-19T21:23:58;15.90;54.90
14993;DHT22;7592;51.088;13.732;2023-09-19T21:28:51;15.80;99.90
14993;DHT22;7592;51.088;13.732;2023-09-19T21:33:43;15.80;1.00
14993;DHT22;7592;51.088;13.732;2023-09-19T21:38:37;15.70;1.00
14993;DHT22;7592;51.088;13.732;2023-09-19T21:43:31;15.70;99.90
14993;DHT22;7592;51.088;13.732;2023-09-19T21:48:23;15.60;1.00
14993;DHT22;7592;51.088;13.732;2023-09-19T21:53:15;15.30;1.00
14993;DHT22;7592;51.088;13.732;2023-09-19T21:58:08;15.20;99.90
14993;DHT22;7592;51.088;13.732;2023-09-19T22:03:07;15.20;99.90
14993;DHT22;7592;51.088;13.732;2023-09-19T22:07:59;15.20;99.90
14993;DHT22;7592;51.088;13.732;2023-09-19T22:12:51;15.10;1.00
14993;DHT22;7592;51.088;13.732;2023-09-19T22:17:44;15.10;1.00
14993;DHT22;7592;51.088;13.732;2023-09-19T22:22:36;15.10;1.00
14993;DHT22;7592;51.088;13.732;2023-09-19T22:27:30;15.00;1.00
14993;DHT22;7592;51.088;13.732;2023-09-19T22:32:22;15.00;46.60
14993;DHT22;7592;51.088;13.732;2023-09-19T22:37:14;14.90;96.60
14993;DHT22;7592;51.088;13.732;2023-09-19T22:42:06;14.80;99.90
14993;DHT22;7592;51.088;13.732;2023-09-19T22:47:03;14.70;99.90
14993;DHT22;7592;51.088;13.732;2023-09-19T22:51:56;14.70;99.90
14993;DHT22;7592;51.088;13.732;2023-09-19T22:56:55;14.60;1.00
14993;DHT22;7592;51.088;13.732;2023-09-19T23:01:47;14.70;1.00
14993;DHT22;7592;51.088;13.732;2023-09-19T23:06:46;14.70;1.00
14993;DHT22;7592;51.088;13.732;2023-09-19T23:11:45;14.70;1.00
14993;DHT22;7592;51.088;13.732;2023-09-19T23:16:37;14.60;1.00
14993;DHT22;7592;51.088;13.732;2023-09-19T23:21:34;14.50;3.70
14993;DHT22;7592;51.088;13.732;2023-09-19T23:26:27;14.50;12.50
14993;DHT22;7592;51.088;13.732;2023-09-19T23:31:20;14.60;1.00
14993;DHT22;7592;51.088;13.732;2023-09-19T23:36:14;14.60;1.00
14993;DHT22;7592;51.088;13.732;2023-09-19T23:41:06;14.40;99.90
14993;DHT22;7592;51.088;13.732;2023-09-19T23:46:03;14.30;1.00
14993;DHT22;7592;51.088;13.732;2023-09-19T23:50:57;14.20;1.00
14993;DHT22;7592;51.088;13.732;2023-09-19T23:55:49;14.30;1.00
